createdAt,value
2024-05-09T00:00:44.662Z,2.80
2024-05-09T00:03:32.410Z,3.10
2024-05-09T00:06:00.915Z,3.30
2024-05-09T00:08:28.897Z,3.10
2024-05-09T00:10:56.826Z,3.50
2024-05-09T00:13:24.559Z,3.40
2024-05-09T00:15:52.200Z,2.90
2024-05-09T00:18:20.066Z,3.30
2024-05-09T00:20:47.841Z,3.80
2024-05-09T00:23:15.870Z,3.10
2024-05-09T00:25:44.578Z,3.40
2024-05-09T00:28:12.734Z,2.80
2024-05-09T00:30:40.869Z,3.10
2024-05-09T00:33:10.382Z,3.30
2024-05-09T00:35:39.601Z,3.30
2024-05-09T00:38:07.929Z,3.20
2024-05-09T00:40:40.329Z,3.20
2024-05-09T00:43:14.515Z,3.20
2024-05-09T00:45:43.990Z,3.20
2024-05-09T00:48:15.365Z,3.60
2024-05-09T00:50:46.662Z,3.30
2024-05-09T00:53:16.394Z,3.40
2024-05-09T00:55:44.860Z,3.10
2024-05-09T00:58:17.977Z,3.40
2024-05-09T01:00:46.448Z,3.20
2024-05-09T01:03:14.749Z,3.30
2024-05-09T01:05:44.350Z,2.80
2024-05-09T01:08:13.192Z,3.10
2024-05-09T01:10:44.141Z,3.40
2024-05-09T01:13:13.698Z,3.40
2024-05-09T01:15:41.680Z,3.00
2024-05-09T01:18:11.661Z,3.30
2024-05-09T01:20:43.380Z,3.30
2024-05-09T01:23:15.213Z,3.80
2024-05-09T01:25:44.998Z,3.50
2024-05-09T01:28:13.323Z,3.20
2024-05-09T01:30:40.947Z,3.30
2024-05-09T01:33:10.520Z,3.50
2024-05-09T01:35:42.051Z,3.40
2024-05-09T01:38:13.806Z,3.20
2024-05-09T01:40:43.442Z,3.40
2024-05-09T01:43:12.070Z,3.70
2024-05-09T01:45:40.607Z,3.60
2024-05-09T01:48:10.171Z,3.90
2024-05-09T01:50:41.729Z,3.50
2024-05-09T01:53:13.519Z,3.80
2024-05-09T01:55:42.220Z,3.60
2024-05-09T01:58:10.078Z,3.30
2024-05-09T02:00:42.117Z,3.80
2024-05-09T02:03:16.901Z,3.70
2024-05-09T02:05:50.048Z,3.30
2024-05-09T02:08:19.925Z,3.70
2024-05-09T02:10:49.335Z,3.60
2024-05-09T02:13:17.394Z,3.70
2024-05-09T02:15:45.237Z,3.30
2024-05-09T02:18:13.714Z,3.90
2024-05-09T02:20:42.762Z,3.70
2024-05-09T02:23:11.413Z,3.50
2024-05-09T02:25:39.906Z,3.30
2024-05-09T02:28:07.935Z,3.40
2024-05-09T02:30:40.038Z,3.30
2024-05-09T02:33:11.870Z,3.00
2024-05-09T02:35:42.405Z,3.40
2024-05-09T02:38:11.071Z,3.50
2024-05-09T02:40:39.991Z,3.40
2024-05-09T02:43:10.635Z,3.70
2024-05-09T02:45:40.042Z,3.20
2024-05-09T02:48:13.108Z,3.90
2024-05-09T02:50:41.993Z,3.40
2024-05-09T02:53:14.181Z,3.50
2024-05-09T02:55:43.361Z,3.20
2024-05-09T02:58:11.847Z,3.30
2024-05-09T03:00:41.958Z,3.60
2024-05-09T03:03:13.603Z,3.40
2024-05-09T03:05:46.923Z,4.00
2024-05-09T03:08:14.985Z,3.60
2024-05-09T03:10:43.021Z,3.60
2024-05-09T03:13:14.384Z,3.80
2024-05-09T03:15:44.228Z,3.80
2024-05-09T03:18:12.738Z,3.70
2024-05-09T03:20:40.964Z,3.80
2024-05-09T03:23:10.235Z,4.00
2024-05-09T03:25:41.389Z,3.70
2024-05-09T03:28:09.123Z,3.60
2024-05-09T03:30:41.782Z,3.50
2024-05-09T03:33:13.364Z,3.70
2024-05-09T03:35:43.568Z,3.50
2024-05-09T03:38:11.558Z,2.90
2024-05-09T03:40:46.873Z,4.10
2024-05-09T03:43:15.214Z,3.50
2024-05-09T03:45:43.567Z,3.20
2024-05-09T03:48:11.571Z,3.60
2024-05-09T03:50:39.567Z,3.20
2024-05-09T03:53:10.424Z,3.50
2024-05-09T03:55:38.845Z,3.80
2024-05-09T03:58:07.711Z,4.00
2024-05-09T04:00:40.009Z,3.80
2024-05-09T04:03:10.793Z,3.60
2024-05-09T04:05:42.598Z,4.00
2024-05-09T04:08:11.573Z,3.80
2024-05-09T04:10:40.660Z,3.40
2024-05-09T04:13:09.643Z,4.20
2024-05-09T04:15:37.268Z,3.60
2024-05-09T04:18:05.380Z,3.90
2024-05-09T04:20:38.590Z,3.50
2024-05-09T04:23:13.628Z,4.00
2024-05-09T04:25:44.066Z,3.70
2024-05-09T04:28:12.195Z,3.80
2024-05-09T04:30:41.494Z,3.60
2024-05-09T04:33:12.250Z,3.80
2024-05-09T04:35:45.115Z,3.50
2024-05-09T04:38:13.996Z,3.50
2024-05-09T04:40:42.379Z,3.60
2024-05-09T04:43:18.628Z,3.70
2024-05-09T04:45:46.665Z,3.80
2024-05-09T04:48:14.866Z,3.10
2024-05-09T04:50:42.969Z,3.10
2024-05-09T04:53:15.933Z,3.30
2024-05-09T04:55:43.699Z,3.60
2024-05-09T04:58:11.536Z,3.20
2024-05-09T05:00:40.575Z,3.80
2024-05-09T05:03:13.705Z,3.50
2024-05-09T05:05:45.352Z,3.70
2024-05-09T05:08:15.404Z,3.90
2024-05-09T05:10:43.911Z,3.60
2024-05-09T05:13:22.591Z,3.60
2024-05-09T05:15:56.935Z,3.40
2024-05-09T05:18:27.394Z,3.30
2024-05-09T05:20:56.042Z,3.80
2024-05-09T05:23:24.687Z,4.00
2024-05-09T05:25:53.555Z,4.00
2024-05-09T05:28:22.473Z,3.80
2024-05-09T05:30:50.302Z,3.50
2024-05-09T05:33:19.139Z,3.80
2024-05-09T05:35:47.631Z,3.60
2024-05-09T05:38:15.600Z,3.50
2024-05-09T05:40:43.398Z,3.30
2024-05-09T05:43:17.136Z,3.60
2024-05-09T05:45:45.360Z,3.10
2024-05-09T05:48:16.063Z,3.40
2024-05-09T05:50:44.376Z,3.10
2024-05-09T05:53:12.356Z,3.30
2024-05-09T05:55:40.997Z,3.90
2024-05-09T05:58:10.353Z,3.20
2024-05-09T06:00:40.202Z,3.20
2024-05-09T06:05:43.334Z,3.40
2024-05-09T06:08:11.517Z,3.40
2024-05-09T06:10:41.008Z,3.40
2024-05-09T06:13:13.313Z,3.60
2024-05-09T06:15:41.986Z,3.00
2024-05-09T06:18:11.232Z,3.40
2024-05-09T06:20:41.905Z,2.90
2024-05-09T06:23:11.065Z,3.40
2024-05-09T06:25:38.965Z,4.10
2024-05-09T06:28:06.854Z,3.40
2024-05-09T06:30:40.055Z,3.30
2024-05-09T06:33:12.791Z,3.80
2024-05-09T06:35:43.645Z,3.10
2024-05-09T06:38:11.954Z,2.90
2024-05-09T06:40:42.193Z,3.50
2024-05-09T06:43:16.751Z,3.80
2024-05-09T06:45:52.399Z,3.20
2024-05-09T06:48:21.069Z,3.00
2024-05-09T06:50:50.001Z,3.00
2024-05-09T06:53:21.091Z,2.90
2024-05-09T06:55:49.157Z,2.90
2024-05-09T06:58:16.922Z,3.60
2024-05-09T07:00:44.782Z,3.00
2024-05-09T07:03:16.985Z,2.90
2024-05-09T07:05:48.175Z,3.50
2024-05-09T07:08:18.074Z,3.10
2024-05-09T07:10:46.379Z,3.70
2024-05-09T07:13:15.061Z,2.70
2024-05-09T07:15:43.242Z,2.70
2024-05-09T07:18:18.567Z,3.30
2024-05-09T07:20:49.595Z,3.30
2024-05-09T07:23:18.657Z,2.60
2024-05-09T07:25:46.673Z,3.10
2024-05-09T07:28:15.138Z,2.70
2024-05-09T07:30:43.067Z,2.20
2024-05-09T07:33:22.855Z,2.60
2024-05-09T07:35:52.366Z,2.40
2024-05-09T07:38:20.273Z,2.90
2024-05-09T07:40:48.520Z,2.60
2024-05-09T07:43:18.944Z,2.60
2024-05-09T07:45:52.549Z,2.00
2024-05-09T07:52:38.536Z,2.10
2024-05-09T07:53:47.468Z,2.30
2024-05-09T07:56:20.396Z,2.30
2024-05-09T07:58:52.361Z,1.90
2024-05-09T08:01:20.742Z,2.00
2024-05-09T08:03:48.971Z,2.10
2024-05-09T08:06:16.995Z,2.20
2024-05-09T08:08:47.575Z,2.70
2024-05-09T08:13:43.005Z,2.00
2024-05-09T08:16:10.699Z,2.30
2024-05-09T08:18:38.643Z,2.00
2024-05-09T08:21:06.502Z,1.90
2024-05-09T08:23:34.246Z,2.20
2024-05-09T08:26:01.807Z,2.50
2024-05-09T08:28:29.440Z,2.20
2024-05-09T08:30:57.299Z,1.90
2024-05-09T08:33:25.253Z,2.40
2024-05-09T08:35:52.946Z,3.00
2024-05-09T08:38:20.742Z,2.30
2024-05-09T08:40:49.109Z,2.50
2024-05-09T08:43:19.731Z,2.40
2024-05-09T08:45:49.545Z,2.50
2024-05-09T08:48:19.663Z,2.30
2024-05-09T08:50:50.208Z,1.90
2024-05-09T08:53:18.777Z,2.20
2024-05-09T08:55:47.114Z,2.10
2024-05-09T08:58:19.232Z,2.00
2024-05-09T09:00:47.822Z,2.00
2024-05-09T09:03:18.308Z,2.30
2024-05-09T09:06:11.506Z,2.40
2024-05-09T09:08:39.595Z,2.00
2024-05-09T09:11:07.259Z,2.10
2024-05-09T09:13:35.003Z,1.80
2024-05-09T09:16:03.445Z,2.20
2024-05-09T09:18:32.777Z,2.00
2024-05-09T09:21:00.652Z,2.30
2024-05-09T09:23:29.570Z,1.90
2024-05-09T09:26:00.715Z,2.30
2024-05-09T09:28:29.561Z,2.20
2024-05-09T09:31:04.078Z,2.00
2024-05-09T09:33:32.655Z,2.20
2024-05-09T09:36:02.808Z,2.30
2024-05-09T09:38:32.233Z,1.90
2024-05-09T09:41:03.036Z,2.00
2024-05-09T09:43:32.822Z,2.00
2024-05-09T09:46:01.894Z,2.20
2024-05-09T09:48:32.050Z,2.10
2024-05-09T09:51:00.717Z,1.80
2024-05-09T09:53:28.896Z,2.10
2024-05-09T09:55:57.596Z,2.00
2024-05-09T09:58:25.457Z,1.90
2024-05-09T10:00:53.392Z,1.60
2024-05-09T10:03:21.174Z,2.30
2024-05-09T10:05:49.532Z,1.90
2024-05-09T10:08:18.498Z,2.20
2024-05-09T10:10:50.076Z,2.30
2024-05-09T10:13:19.751Z,1.90
2024-05-09T10:15:51.713Z,2.00
2024-05-09T10:18:26.098Z,2.40
2024-05-09T10:20:56.034Z,1.90
2024-05-09T10:23:27.212Z,2.00
2024-05-09T10:26:00.154Z,2.00
2024-05-09T10:28:29.293Z,1.50
2024-05-09T10:31:10.785Z,2.30
2024-05-09T10:33:51.004Z,1.60
2024-05-09T10:36:24.302Z,1.80
2024-05-09T10:38:55.335Z,1.90
2024-05-09T10:41:23.484Z,2.10
2024-05-09T10:43:52.133Z,1.90
2024-05-09T10:46:20.237Z,2.20
2024-05-09T10:48:48.792Z,1.90
2024-05-09T10:51:19.337Z,1.90
2024-05-09T10:56:16.364Z,1.80
2024-05-09T10:58:44.269Z,1.70
2024-05-09T11:01:13.023Z,1.80
2024-05-09T11:03:41.708Z,1.80
2024-05-09T11:06:11.093Z,1.90
2024-05-09T11:08:39.294Z,2.50
2024-05-09T11:11:08.803Z,2.10
2024-05-09T11:13:38.711Z,1.70
2024-05-09T11:16:17.409Z,1.50
2024-05-09T11:18:56.684Z,1.60
2024-05-09T11:21:25.181Z,1.60
2024-05-09T11:23:53.294Z,1.70
2024-05-09T11:26:21.916Z,1.80
2024-05-09T11:28:50.429Z,1.80
2024-05-09T11:31:18.549Z,2.00
2024-05-09T11:33:46.602Z,1.80
2024-05-09T11:36:14.913Z,1.80
2024-05-09T11:38:43.005Z,1.80
2024-05-09T11:41:17.786Z,1.90
2024-05-09T11:43:45.518Z,1.70
2024-05-09T11:46:13.511Z,1.80
2024-05-09T11:48:41.674Z,1.80
2024-05-09T11:51:09.461Z,1.90
2024-05-09T11:53:37.082Z,1.80
2024-05-09T11:56:05.263Z,2.10
2024-05-09T11:58:34.768Z,1.70
2024-05-09T12:01:02.900Z,1.90
2024-05-09T12:03:31.077Z,1.90
2024-05-09T12:05:59.275Z,1.60
2024-05-09T12:08:27.213Z,1.60
2024-05-09T12:10:55.161Z,1.60
2024-05-09T12:13:23.060Z,1.60
2024-05-09T12:15:50.862Z,1.50
2024-05-09T12:18:18.596Z,1.60
2024-05-09T12:20:46.308Z,1.70
2024-05-09T12:23:14.458Z,1.50
2024-05-09T12:25:42.222Z,1.70
2024-05-09T12:28:10.278Z,1.60
2024-05-09T12:30:40.433Z,1.60
2024-05-09T12:33:12.213Z,1.60
2024-05-09T12:35:44.095Z,1.60
2024-05-09T12:38:15.141Z,1.60
2024-05-09T12:40:43.652Z,1.60
2024-05-09T12:43:11.942Z,1.50
2024-05-09T12:45:40.447Z,1.90
2024-05-09T12:48:11.373Z,1.40
2024-05-09T12:50:40.496Z,1.60
2024-05-09T12:53:08.263Z,1.50
2024-05-09T12:55:44.571Z,1.90
2024-05-09T12:58:23.952Z,1.80
2024-05-09T13:00:52.603Z,1.80
2024-05-09T13:03:21.556Z,1.70
2024-05-09T13:05:50.635Z,1.70
2024-05-09T13:08:19.420Z,1.60
2024-05-09T13:10:47.814Z,1.70
2024-05-09T13:13:15.670Z,1.70
2024-05-09T13:15:43.528Z,1.90
2024-05-09T13:18:11.521Z,2.00
2024-05-09T13:20:39.082Z,1.70
2024-05-09T13:23:08.307Z,1.70
2024-05-09T13:25:38.295Z,1.90
2024-05-09T13:28:06.980Z,1.70
2024-05-09T13:30:40.050Z,1.60
2024-05-09T13:33:11.930Z,2.00
2024-05-09T13:35:45.728Z,1.50
2024-05-09T13:38:21.203Z,1.70
2024-05-09T13:40:50.440Z,1.70
2024-05-09T13:43:19.772Z,1.70
2024-05-09T13:45:47.715Z,1.60
2024-05-09T13:48:15.678Z,1.60
2024-05-09T13:50:43.518Z,1.70
2024-05-09T13:53:11.706Z,1.60
2024-05-09T13:55:40.170Z,1.60
2024-05-09T13:58:09.124Z,1.70
2024-05-09T14:00:46.588Z,1.80
2024-05-09T14:03:19.646Z,1.80
2024-05-09T14:05:51.096Z,2.00
2024-05-09T14:08:21.738Z,1.70
2024-05-09T14:10:50.132Z,1.70
2024-05-09T14:13:18.424Z,1.70
2024-05-09T14:15:46.709Z,2.10
2024-05-09T14:18:15.061Z,2.00
2024-05-09T14:20:43.275Z,1.90
2024-05-09T14:23:11.255Z,1.80
2024-05-09T14:25:42.316Z,2.10
2024-05-09T14:28:12.564Z,2.30
2024-05-09T14:30:43.764Z,1.80
2024-05-09T14:35:39.754Z,1.70
2024-05-09T14:38:08.538Z,2.10
2024-05-09T14:40:42.145Z,1.80
2024-05-09T14:43:13.737Z,2.10
2024-05-09T14:45:42.391Z,2.10
2024-05-09T14:48:11.742Z,2.30
2024-05-09T14:50:40.702Z,2.30
2024-05-09T14:53:10.599Z,1.60
2024-05-09T14:55:40.468Z,1.70
2024-05-09T14:58:10.201Z,1.60
2024-05-09T15:00:45.752Z,1.70
2024-05-09T15:03:18.676Z,1.60
2024-05-09T15:05:47.309Z,1.70
2024-05-09T15:08:17.175Z,1.90
2024-05-09T15:10:44.952Z,1.80
2024-05-09T15:13:15.476Z,1.70
2024-05-09T15:15:44.461Z,1.60
2024-05-09T15:18:13.460Z,1.90
2024-05-09T15:20:43.601Z,1.70
2024-05-09T15:23:11.507Z,1.80
2024-05-09T15:25:39.270Z,2.10
2024-05-09T15:28:08.162Z,1.70
2024-05-09T15:30:36.595Z,1.70
2024-05-09T15:33:05.745Z,1.80
2024-05-09T15:35:34.891Z,1.80
2024-05-09T15:38:03.514Z,2.10
2024-05-09T15:40:38.691Z,2.00
2024-05-09T15:43:09.912Z,1.60
2024-05-09T15:45:40.241Z,1.60
2024-05-09T15:48:10.347Z,1.70
2024-05-09T15:50:41.346Z,2.20
2024-05-09T15:53:12.240Z,1.60
2024-05-09T15:55:42.681Z,1.80
2024-05-09T15:58:11.106Z,1.70
2024-05-09T16:00:42.215Z,1.70
2024-05-09T16:03:13.363Z,1.60
2024-05-09T16:05:46.371Z,1.70
2024-05-09T16:08:15.587Z,2.00
2024-05-09T16:10:45.834Z,1.70
2024-05-09T16:13:15.188Z,1.70
2024-05-09T16:15:43.706Z,2.30
2024-05-09T16:18:12.497Z,2.00
2024-05-09T16:20:42.315Z,1.80
2024-05-09T16:23:12.505Z,1.60
2024-05-09T16:25:45.055Z,1.80
2024-05-09T16:28:13.449Z,2.10
2024-05-09T16:30:41.560Z,1.70
2024-05-09T16:33:10.789Z,1.80
2024-05-09T16:35:39.184Z,1.80
2024-05-09T16:38:07.258Z,2.10
2024-05-09T16:40:39.812Z,1.70
2024-05-09T16:43:10.263Z,1.60
2024-05-09T16:45:39.897Z,1.80
2024-05-09T16:48:08.766Z,1.80
2024-05-09T16:50:37.142Z,1.70
2024-05-09T16:53:06.243Z,1.70
2024-05-09T16:55:35.589Z,1.60
2024-05-09T16:58:04.314Z,1.70
2024-05-09T17:00:40.216Z,2.10
2024-05-09T17:03:14.236Z,1.60
2024-05-09T17:05:46.010Z,1.80
2024-05-09T17:08:16.688Z,1.80
2024-05-09T17:10:45.773Z,1.70
2024-05-09T17:13:13.992Z,1.90
2024-05-09T17:15:41.711Z,2.00
2024-05-09T17:18:09.701Z,2.10
2024-05-09T17:20:37.966Z,2.20
2024-05-09T17:23:12.913Z,2.40
2024-05-09T17:25:42.265Z,1.90
2024-05-09T17:28:10.866Z,2.30
2024-05-09T17:30:40.775Z,1.80
2024-05-09T17:33:11.386Z,1.60
2024-05-09T17:35:40.263Z,1.70
2024-05-09T17:38:08.229Z,1.70
2024-05-09T17:40:37.963Z,2.10
2024-05-09T17:43:08.952Z,1.90
2024-05-09T17:45:41.890Z,1.70
2024-05-09T17:48:11.651Z,1.60
2024-05-09T17:50:41.493Z,2.00
2024-05-09T17:53:10.245Z,1.80
2024-05-09T17:55:39.557Z,1.70
2024-05-09T17:58:07.712Z,2.00
2024-05-09T18:00:39.678Z,2.10
2024-05-09T18:03:11.860Z,2.20
2024-05-09T18:05:41.999Z,1.80
2024-05-09T18:08:10.333Z,2.10
2024-05-09T18:10:40.416Z,2.20
2024-05-09T18:13:09.209Z,1.70
2024-05-09T18:15:38.191Z,2.00
2024-05-09T18:18:07.385Z,2.10
2024-05-09T18:20:42.290Z,2.10
2024-05-09T18:23:16.139Z,2.10
2024-05-09T18:25:46.744Z,1.80
2024-05-09T18:28:15.574Z,2.20
2024-05-09T18:30:43.531Z,1.90
2024-05-09T18:33:12.175Z,2.10
2024-05-09T18:35:44.591Z,2.10
2024-05-09T18:38:13.161Z,2.00
2024-05-09T18:40:43.572Z,2.00
2024-05-09T18:43:13.099Z,2.00
2024-05-09T18:45:40.910Z,1.90
2024-05-09T18:48:12.411Z,2.10
2024-05-09T18:50:41.450Z,1.80
2024-05-09T18:53:11.800Z,4.80
2024-05-09T18:55:43.920Z,11.90
2024-05-09T18:58:11.921Z,12.20
2024-05-09T19:00:42.656Z,8.20
2024-05-09T19:03:14.292Z,9.30
2024-05-09T19:05:45.002Z,7.30
2024-05-09T19:10:42.914Z,6.70
2024-05-09T19:13:13.836Z,7.60
2024-05-09T19:15:43.393Z,3.50
2024-05-09T19:18:13.039Z,4.10
2024-05-09T19:20:41.492Z,12.10
2024-05-09T19:23:10.702Z,9.80
2024-05-09T19:25:38.638Z,6.20
2024-05-09T19:28:06.529Z,3.30
2024-05-09T19:30:39.790Z,2.70
2024-05-09T19:33:14.600Z,2.90
2024-05-09T19:35:43.613Z,2.50
2024-05-09T19:38:12.531Z,4.60
2024-05-09T19:40:40.738Z,3.50
2024-05-09T19:43:09.015Z,2.70
2024-05-09T19:45:37.019Z,3.30
2024-05-09T19:48:06.625Z,3.00
2024-05-09T19:50:41.592Z,3.40
2024-05-09T19:53:13.292Z,2.20
2024-05-09T19:55:41.815Z,2.60
2024-05-09T19:58:10.822Z,2.40
2024-05-09T20:00:41.373Z,2.40
2024-05-09T20:03:12.051Z,2.40
2024-05-09T20:05:42.804Z,2.50
2024-05-09T20:08:10.911Z,2.70
2024-05-09T20:10:38.768Z,2.90
2024-05-09T20:13:08.148Z,3.20
2024-05-09T20:15:37.547Z,3.20
2024-05-09T20:18:06.301Z,3.40
2024-05-09T20:20:39.323Z,3.20
2024-05-09T20:23:11.298Z,3.60
2024-05-09T20:25:39.770Z,5.10
2024-05-09T20:28:07.663Z,3.30
2024-05-09T20:30:36.560Z,2.90
2024-05-09T20:33:07.037Z,2.80
2024-05-09T20:35:36.282Z,3.40
2024-05-09T20:38:04.705Z,3.30
2024-05-09T20:40:36.751Z,3.00
2024-05-09T20:43:10.364Z,3.30
2024-05-09T20:45:39.320Z,3.30
2024-05-09T20:48:08.550Z,3.00
2024-05-09T20:50:40.497Z,3.10
2024-05-09T20:53:14.468Z,3.10
2024-05-09T20:55:44.415Z,3.20
2024-05-09T20:58:13.680Z,3.00
2024-05-09T21:00:44.683Z,3.30
2024-05-09T21:03:16.675Z,3.40
2024-05-09T21:05:46.558Z,3.00
2024-05-09T21:08:14.929Z,3.60
2024-05-09T21:10:42.645Z,3.10
2024-05-09T21:13:11.234Z,3.50
2024-05-09T21:15:39.131Z,3.60
2024-05-09T21:18:07.424Z,3.90
2024-05-09T21:20:35.503Z,3.60
2024-05-09T21:23:03.808Z,3.60
2024-05-09T21:25:32.227Z,3.50
2024-05-09T21:28:00.702Z,3.40
2024-05-09T21:30:38.423Z,4.00
2024-05-09T21:33:12.462Z,3.50
2024-05-09T21:35:42.646Z,3.60
2024-05-09T21:38:10.537Z,3.20
2024-05-09T21:40:38.796Z,3.70
2024-05-09T21:43:07.498Z,3.80
2024-05-09T21:45:36.371Z,3.40
2024-05-09T21:48:05.508Z,3.40
2024-05-09T21:50:39.697Z,3.70
2024-05-09T21:53:13.220Z,3.60
2024-05-09T21:55:42.126Z,3.50
2024-05-09T21:58:11.374Z,3.50
2024-05-09T22:00:40.625Z,3.50
2024-05-09T22:03:10.693Z,3.90
2024-05-09T22:05:41.764Z,3.50
2024-05-09T22:08:10.575Z,3.50
2024-05-09T22:10:38.454Z,4.10
2024-05-09T22:13:07.232Z,3.90
2024-05-09T22:15:39.186Z,3.70
2024-05-09T22:18:10.068Z,4.10
2024-05-09T22:20:44.490Z,3.60
2024-05-09T22:23:14.731Z,3.90
2024-05-09T22:25:42.673Z,4.40
2024-05-09T22:28:14.347Z,4.20
2024-05-09T22:30:43.861Z,3.70
2024-05-09T22:33:12.373Z,3.80
2024-05-09T22:35:41.848Z,3.80
2024-05-09T22:38:09.528Z,3.80
2024-05-09T22:40:45.545Z,4.20
2024-05-09T22:43:19.383Z,3.70
2024-05-09T22:45:47.684Z,4.40
2024-05-09T22:48:15.862Z,4.70
2024-05-09T22:50:43.725Z,4.50
2024-05-09T22:53:11.449Z,4.30
2024-05-09T22:55:39.137Z,4.30
2024-05-09T22:58:06.920Z,4.60
2024-05-09T23:00:35.167Z,4.50
2024-05-09T23:03:03.322Z,5.00
2024-05-09T23:05:32.304Z,4.50
2024-05-09T23:08:01.443Z,5.00
2024-05-09T23:10:35.546Z,5.20
2024-05-09T23:13:06.490Z,4.60
2024-05-09T23:15:35.561Z,4.90
2024-05-09T23:18:03.827Z,4.30
2024-05-09T23:20:37.294Z,4.20
2024-05-09T23:23:08.506Z,4.60
2024-05-09T23:25:36.897Z,4.60
2024-05-09T23:28:05.516Z,4.40
2024-05-09T23:30:38.437Z,4.50
2024-05-09T23:33:13.067Z,4.50
2024-05-09T23:35:43.398Z,4.70
2024-05-09T23:38:11.863Z,4.50
2024-05-09T23:40:41.352Z,5.30
2024-05-09T23:43:11.378Z,5.50
2024-05-09T23:45:40.517Z,5.30
2024-05-09T23:48:08.903Z,4.60
2024-05-09T23:50:38.646Z,4.60
2024-05-09T23:53:09.363Z,5.00
2024-05-09T23:55:38.877Z,4.60
2024-05-09T23:58:07.853Z,4.20
